createdAt,value
2018-11-10T00:00:07.332Z,12.97
2018-11-10T00:02:35.013Z,12.67
2018-11-10T00:05:02.567Z,12.73
2018-11-10T00:07:30.214Z,13.03
2018-11-10T00:09:57.821Z,12.87
2018-11-10T00:12:25.554Z,13.87
2018-11-10T00:14:53.303Z,13.03
2018-11-10T00:17:21.061Z,12.20
2018-11-10T00:19:49.044Z,11.90
2018-11-10T00:22:17.627Z,12.63
2018-11-10T00:24:45.352Z,12.10
2018-11-10T00:27:12.942Z,11.40
2018-11-10T00:29:40.612Z,10.97
2018-11-10T00:32:08.223Z,11.87
2018-11-10T00:34:35.901Z,11.13
2018-11-10T00:37:03.525Z,11.00
2018-11-10T00:39:31.131Z,11.83
2018-11-10T00:41:58.837Z,11.27
2018-11-10T00:44:26.668Z,11.30
2018-11-10T00:46:54.262Z,10.97
2018-11-10T00:49:21.974Z,11.00
2018-11-10T00:51:49.531Z,10.67
2018-11-10T00:54:17.222Z,11.63
2018-11-10T00:56:44.779Z,11.50
2018-11-10T00:59:12.433Z,11.97
2018-11-10T01:01:39.918Z,12.27
2018-11-10T01:04:07.489Z,11.63
2018-11-10T01:06:34.977Z,11.47
2018-11-10T01:09:02.576Z,11.10
2018-11-10T01:11:30.145Z,11.20
2018-11-10T01:13:57.797Z,10.97
2018-11-10T01:16:25.257Z,10.60
2018-11-10T01:18:52.782Z,10.50
2018-11-10T01:21:20.431Z,11.00
2018-11-10T01:23:47.879Z,10.57
2018-11-10T01:26:15.327Z,10.13
2018-11-10T01:28:43.103Z,10.13
2018-11-10T01:31:10.807Z,10.20
2018-11-10T01:33:38.497Z,10.37
2018-11-10T01:36:06.146Z,10.30
2018-11-10T01:38:33.647Z,10.10
2018-11-10T01:41:01.116Z,10.07
2018-11-10T01:43:28.723Z,10.37
2018-11-10T01:45:56.353Z,10.23
2018-11-10T01:48:23.854Z,10.73
2018-11-10T01:50:51.516Z,10.60
2018-11-10T01:53:19.099Z,10.37
2018-11-10T01:55:46.608Z,10.77
2018-11-10T01:58:14.151Z,9.43
2018-11-10T02:00:41.775Z,9.77
2018-11-10T02:03:09.275Z,9.23
2018-11-10T02:05:36.855Z,9.53
2018-11-10T02:08:04.860Z,9.97
2018-11-10T02:10:32.501Z,10.67
2018-11-10T02:12:59.969Z,9.87
2018-11-10T02:15:27.537Z,9.47
2018-11-10T02:17:55.236Z,11.33
2018-11-10T02:20:22.858Z,9.77
2018-11-10T02:22:50.418Z,9.30
2018-11-10T02:25:17.858Z,9.67
2018-11-10T02:27:45.540Z,9.67
2018-11-10T02:30:13.116Z,9.53
2018-11-10T02:32:41.056Z,9.23
2018-11-10T02:35:09.120Z,9.80
2018-11-10T02:37:37.492Z,9.80
2018-11-10T02:40:06.714Z,8.87
2018-11-10T02:42:34.264Z,9.30
2018-11-10T02:45:02.101Z,9.13
2018-11-10T02:47:29.564Z,9.03
2018-11-10T02:49:57.136Z,8.90
2018-11-10T02:52:24.786Z,9.13
2018-11-10T02:54:52.298Z,8.73
2018-11-10T02:57:19.915Z,9.77
2018-11-10T02:59:47.334Z,9.50
2018-11-10T03:02:14.968Z,8.97
2018-11-10T03:04:43.149Z,9.70
2018-11-10T03:07:10.651Z,8.90
2018-11-10T03:09:38.154Z,9.47
2018-11-10T03:12:05.866Z,9.40
2018-11-10T03:14:33.426Z,8.97
2018-11-10T03:17:00.965Z,8.57
2018-11-10T03:19:28.514Z,9.10
2018-11-10T03:21:56.053Z,9.43
2018-11-10T03:24:23.734Z,9.43
2018-11-10T03:26:51.428Z,9.43
2018-11-10T03:29:18.904Z,9.23
2018-11-10T03:31:46.360Z,8.87
2018-11-10T03:34:13.992Z,9.00
2018-11-10T03:36:41.508Z,9.13
2018-11-10T03:39:11.070Z,8.70
2018-11-10T03:41:38.595Z,8.70
2018-11-10T03:44:06.562Z,8.67
2018-11-10T03:46:34.177Z,8.53
2018-11-10T03:49:01.714Z,8.60
2018-11-10T03:51:29.229Z,8.30
2018-11-10T03:53:56.759Z,8.60
2018-11-10T03:56:24.243Z,8.20
2018-11-10T03:58:51.833Z,8.67
2018-11-10T04:01:19.327Z,9.50
2018-11-10T04:03:46.813Z,9.30
2018-11-10T04:06:14.271Z,8.63
2018-11-10T04:08:41.914Z,9.03
2018-11-10T04:11:09.691Z,8.80
2018-11-10T04:13:37.169Z,8.53
2018-11-10T04:16:04.717Z,9.20
2018-11-10T04:18:32.207Z,9.43
2018-11-10T04:20:59.747Z,9.87
2018-11-10T04:23:27.209Z,9.23
2018-11-10T04:25:54.919Z,8.83
2018-11-10T04:28:22.671Z,8.83
2018-11-10T04:30:50.261Z,8.97
2018-11-10T04:33:17.859Z,8.63
2018-11-10T04:35:45.371Z,8.17
2018-11-10T04:38:12.935Z,8.57
2018-11-10T04:40:40.676Z,9.50
2018-11-10T04:43:08.268Z,8.37
2018-11-10T04:45:35.763Z,8.03
2018-11-10T04:50:37.758Z,9.30
2018-11-10T04:53:05.516Z,8.47
2018-11-10T04:55:33.087Z,9.13
2018-11-10T04:58:00.721Z,8.33
2018-11-10T05:00:28.207Z,8.00
2018-11-10T05:02:55.699Z,7.87
2018-11-10T05:05:23.237Z,8.20
2018-11-10T05:07:50.744Z,8.97
2018-11-10T05:10:18.326Z,9.53
2018-11-10T05:12:45.994Z,7.77
2018-11-10T05:15:13.662Z,8.80
2018-11-10T05:17:41.272Z,8.47
2018-11-10T05:20:08.880Z,8.73
2018-11-10T05:22:36.543Z,8.77
2018-11-10T05:25:04.194Z,8.50
2018-11-10T05:27:31.742Z,8.23
2018-11-10T05:29:59.945Z,7.97
2018-11-10T05:32:27.554Z,8.33
2018-11-10T05:34:55.079Z,8.47
2018-11-10T05:37:22.666Z,8.80
2018-11-10T05:39:50.482Z,7.87
2018-11-10T05:42:17.996Z,7.87
2018-11-10T05:44:45.496Z,8.03
2018-11-10T05:47:13.158Z,7.03
2018-11-10T05:49:40.645Z,7.93
2018-11-10T05:52:08.114Z,8.43
2018-11-10T05:54:35.682Z,7.23
2018-11-10T05:57:03.201Z,8.03
2018-11-10T05:59:30.812Z,8.37
2018-11-10T06:01:58.389Z,8.23
2018-11-10T06:04:26.018Z,8.37
2018-11-10T06:06:53.606Z,8.37
2018-11-10T06:09:21.164Z,7.60
2018-11-10T06:11:48.565Z,7.37
2018-11-10T06:14:16.181Z,7.47
2018-11-10T06:16:43.696Z,7.87
2018-11-10T06:19:11.359Z,8.27
2018-11-10T06:21:38.905Z,8.67
2018-11-10T06:24:06.524Z,7.97
2018-11-10T06:26:34.250Z,7.27
2018-11-10T06:29:01.762Z,8.17
2018-11-10T06:31:29.572Z,7.73
2018-11-10T06:33:57.083Z,7.37
2018-11-10T06:36:24.734Z,6.90
2018-11-10T06:38:52.335Z,7.30
2018-11-10T06:41:19.903Z,7.13
2018-11-10T06:43:47.381Z,7.93
2018-11-10T06:46:15.194Z,7.87
2018-11-10T06:48:42.795Z,8.00
2018-11-10T06:51:10.312Z,7.40
2018-11-10T06:53:37.929Z,7.77
2018-11-10T06:56:05.609Z,6.53
2018-11-10T06:58:33.121Z,7.07
2018-11-10T07:01:00.778Z,7.73
2018-11-10T07:03:28.513Z,6.87
2018-11-10T07:05:56.057Z,7.07
2018-11-10T07:08:23.563Z,7.53
2018-11-10T07:10:51.176Z,7.87
2018-11-10T07:13:18.719Z,7.40
2018-11-10T07:15:46.201Z,7.60
2018-11-10T07:18:13.923Z,7.47
2018-11-10T07:20:41.335Z,8.20
2018-11-10T07:23:09.053Z,7.70
2018-11-10T07:25:36.640Z,7.53
2018-11-10T07:28:04.677Z,7.90
2018-11-10T07:30:32.309Z,7.77
2018-11-10T07:32:59.827Z,7.50
2018-11-10T07:35:27.321Z,8.07
2018-11-10T07:37:54.863Z,8.23
2018-11-10T07:40:22.460Z,6.87
2018-11-10T07:42:50.093Z,7.23
2018-11-10T07:45:17.689Z,6.80
2018-11-10T07:47:45.709Z,7.73
2018-11-10T07:50:13.518Z,7.57
2018-11-10T07:52:41.611Z,7.30
2018-11-10T07:55:15.299Z,7.33
2018-11-10T07:57:42.866Z,7.47
2018-11-10T08:00:13.439Z,6.77
2018-11-10T08:02:41.337Z,7.97
2018-11-10T08:05:10.508Z,6.60
2018-11-10T08:07:39.816Z,6.80
2018-11-10T08:10:07.628Z,6.70
2018-11-10T08:12:35.310Z,7.07
2018-11-10T08:15:03.093Z,7.07
2018-11-10T08:17:31.153Z,7.50
2018-11-10T08:19:58.894Z,7.83
2018-11-10T08:22:26.469Z,8.03
2018-11-10T08:24:54.158Z,7.43
2018-11-10T08:27:21.836Z,8.97
2018-11-10T08:29:49.275Z,9.03
2018-11-10T08:32:16.928Z,10.57
2018-11-10T08:34:44.775Z,9.83
2018-11-10T08:37:12.370Z,7.87
2018-11-10T08:39:39.933Z,8.93
2018-11-10T08:42:07.420Z,7.40
2018-11-10T08:44:34.911Z,7.53
2018-11-10T08:47:02.535Z,8.10
2018-11-10T08:49:30.036Z,7.87
2018-11-10T08:51:57.685Z,7.53
2018-11-10T08:54:25.328Z,7.63
2018-11-10T08:56:53.072Z,7.83
2018-11-10T08:59:20.620Z,8.27
2018-11-10T09:01:48.224Z,8.13
2018-11-10T09:04:15.691Z,7.40
2018-11-10T09:06:43.266Z,8.03
2018-11-10T09:09:11.369Z,7.83
2018-11-10T09:11:38.852Z,7.67
2018-11-10T09:14:06.414Z,7.00
2018-11-10T09:16:33.984Z,7.80
2018-11-10T09:19:01.513Z,7.30
2018-11-10T09:21:29.637Z,8.10
2018-11-10T09:23:56.917Z,7.60
2018-11-10T09:26:24.623Z,6.77
2018-11-10T09:28:52.076Z,7.43
2018-11-10T09:31:19.710Z,7.03
2018-11-10T09:33:47.381Z,7.23
2018-11-10T09:36:15.141Z,7.83
2018-11-10T09:38:42.680Z,7.60
2018-11-10T09:41:10.352Z,7.80
2018-11-10T09:43:38.041Z,7.20
2018-11-10T09:46:05.795Z,9.13
2018-11-10T09:48:33.746Z,7.57
2018-11-10T09:51:01.437Z,7.57
2018-11-10T09:53:30.021Z,7.70
2018-11-10T09:55:57.622Z,8.20
2018-11-10T09:58:25.300Z,7.53
2018-11-10T10:00:52.910Z,7.80
2018-11-10T10:03:20.401Z,8.13
2018-11-10T10:05:48.085Z,7.63
2018-11-10T10:08:15.710Z,8.17
2018-11-10T10:10:43.233Z,7.47
2018-11-10T10:13:10.787Z,7.47
2018-11-10T10:15:38.287Z,7.33
2018-11-10T10:18:05.837Z,8.10
2018-11-10T10:20:33.361Z,7.40
2018-11-10T10:23:01.105Z,7.33
2018-11-10T10:25:28.577Z,7.70
2018-11-10T10:27:56.185Z,7.77
2018-11-10T10:30:24.816Z,8.33
2018-11-10T10:32:52.353Z,8.20
2018-11-10T10:35:20.028Z,7.50
2018-11-10T10:37:48.253Z,7.43
2018-11-10T10:40:16.082Z,7.83
2018-11-10T10:42:44.448Z,7.77
2018-11-10T10:45:14.658Z,7.53
2018-11-10T10:47:42.529Z,7.63
2018-11-10T10:50:11.783Z,7.93
2018-11-10T10:52:39.442Z,7.53
2018-11-10T10:55:07.673Z,7.57
2018-11-10T10:57:35.245Z,7.30
2018-11-10T11:00:02.942Z,8.30
2018-11-10T11:02:36.120Z,7.93
2018-11-10T11:05:09.962Z,7.87
2018-11-10T11:07:37.443Z,7.57
2018-11-10T11:10:05.341Z,7.73
2018-11-10T11:12:32.962Z,7.93
2018-11-10T11:15:01.248Z,7.63
2018-11-10T11:17:28.674Z,8.07
2018-11-10T11:19:56.324Z,8.77
2018-11-10T11:22:23.852Z,8.07
2018-11-10T11:24:51.375Z,8.33
2018-11-10T11:27:19.977Z,7.67
2018-11-10T11:29:48.323Z,7.73
2018-11-10T11:32:15.716Z,8.17
2018-11-10T11:34:43.291Z,7.93
2018-11-10T11:37:10.733Z,8.37
2018-11-10T11:39:38.273Z,7.50
2018-11-10T11:42:05.982Z,8.17
2018-11-10T11:44:33.542Z,7.43
2018-11-10T11:47:01.161Z,8.10
2018-11-10T11:49:28.689Z,7.93
2018-11-10T11:51:57.168Z,7.93
2018-11-10T11:54:24.722Z,7.37
2018-11-10T11:56:52.414Z,7.73
2018-11-10T11:59:20.254Z,7.80
2018-11-10T12:01:47.884Z,8.37
2018-11-10T12:04:15.524Z,8.40
2018-11-10T12:06:43.092Z,8.27
2018-11-10T12:09:11.098Z,8.47
2018-11-10T12:11:38.640Z,8.57
2018-11-10T12:14:06.293Z,8.33
2018-11-10T12:16:33.852Z,7.70
2018-11-10T12:19:01.498Z,8.73
2018-11-10T12:21:29.046Z,9.07
2018-11-10T12:23:56.583Z,9.00
2018-11-10T12:26:24.124Z,8.93
2018-11-10T12:28:51.722Z,9.33
2018-11-10T12:31:19.360Z,9.40
2018-11-10T12:33:46.872Z,9.50
2018-11-10T12:36:14.623Z,9.30
2018-11-10T12:38:42.227Z,9.03
2018-11-10T12:41:09.686Z,9.27
2018-11-10T12:43:37.248Z,9.07
2018-11-10T12:46:05.039Z,9.83
2018-11-10T12:48:32.697Z,8.80
2018-11-10T12:51:00.308Z,9.27
2018-11-10T12:53:27.781Z,10.00
2018-11-10T12:55:55.475Z,9.87
2018-11-10T12:58:23.105Z,9.40
2018-11-10T13:00:50.655Z,9.90
2018-11-10T13:03:18.262Z,9.20
2018-11-10T13:05:45.811Z,9.13
2018-11-10T13:08:13.579Z,9.20
2018-11-10T13:10:41.280Z,8.93
2018-11-10T13:13:08.751Z,9.23
2018-11-10T13:15:36.285Z,8.80
2018-11-10T13:18:03.925Z,9.23
2018-11-10T13:20:31.479Z,8.80
2018-11-10T13:22:58.976Z,8.57
2018-11-10T13:25:26.473Z,9.03
2018-11-10T13:27:54.058Z,8.30
2018-11-10T13:30:21.533Z,8.30
2018-11-10T13:32:49.163Z,8.73
2018-11-10T13:35:16.945Z,8.60
2018-11-10T13:37:44.431Z,8.33
2018-11-10T13:40:11.885Z,8.37
2018-11-10T13:42:39.557Z,7.63
2018-11-10T13:45:08.729Z,8.50
2018-11-10T13:47:36.228Z,7.90
2018-11-10T13:50:10.813Z,8.43
2018-11-10T13:52:39.707Z,8.50
2018-11-10T13:55:07.096Z,8.00
2018-11-10T13:57:34.642Z,8.40
2018-11-10T14:00:02.225Z,9.33
2018-11-10T14:02:29.828Z,9.33
2018-11-10T14:04:57.394Z,9.70
2018-11-10T14:07:25.904Z,9.13
2018-11-10T14:09:53.449Z,9.50
2018-11-10T14:12:21.106Z,8.63
2018-11-10T14:14:48.712Z,9.93
2018-11-10T14:17:16.217Z,9.57
2018-11-10T14:19:43.968Z,9.57
2018-11-10T14:22:11.536Z,9.50
2018-11-10T14:24:40.151Z,9.53
2018-11-10T14:27:07.984Z,10.40
2018-11-10T14:29:35.484Z,9.17
2018-11-10T14:32:03.010Z,9.77
2018-11-10T14:34:30.606Z,10.40
2018-11-10T14:36:58.020Z,10.23
2018-11-10T14:39:27.362Z,10.80
2018-11-10T14:41:55.610Z,10.70
2018-11-10T14:44:23.350Z,10.67
2018-11-10T14:46:50.872Z,10.53
2018-11-10T14:49:18.334Z,12.13
2018-11-10T14:51:45.816Z,11.60
2018-11-10T14:54:13.283Z,11.67
2018-11-10T14:56:41.023Z,12.07
2018-11-10T14:59:08.544Z,12.93
2018-11-10T15:01:37.275Z,12.00
2018-11-10T15:04:04.856Z,12.93
2018-11-10T15:06:32.759Z,12.10
2018-11-10T15:09:00.312Z,13.37
2018-11-10T15:11:27.777Z,13.20
2018-11-10T15:13:55.370Z,13.70
2018-11-10T15:16:22.996Z,13.93
2018-11-10T15:18:50.720Z,14.83
2018-11-10T15:21:18.251Z,13.67
2018-11-10T15:23:45.909Z,14.63
2018-11-10T15:26:13.532Z,15.80
2018-11-10T15:28:41.391Z,15.00
2018-11-10T15:31:08.896Z,15.13
2018-11-10T15:33:36.484Z,14.70
2018-11-10T15:36:04.035Z,15.67
2018-11-10T15:38:32.641Z,14.50
2018-11-10T15:41:00.211Z,15.07
2018-11-10T15:43:27.669Z,15.27
2018-11-10T15:45:55.339Z,15.10
2018-11-10T15:48:22.927Z,16.23
2018-11-10T15:50:50.495Z,15.53
2018-11-10T15:53:18.053Z,16.07
2018-11-10T15:55:45.652Z,15.87
2018-11-10T15:58:13.293Z,15.70
2018-11-10T16:00:40.835Z,16.00
2018-11-10T16:03:08.285Z,17.30
2018-11-10T16:05:36.433Z,16.90
2018-11-10T16:08:04.182Z,16.63
2018-11-10T16:10:31.763Z,16.70
2018-11-10T16:12:59.325Z,16.17
2018-11-10T16:15:26.913Z,16.07
2018-11-10T16:17:54.660Z,17.53
2018-11-10T16:20:22.290Z,17.43
2018-11-10T16:22:52.308Z,16.73
2018-11-10T16:25:19.797Z,17.13
2018-11-10T16:27:47.916Z,17.73
2018-11-10T16:30:16.887Z,17.73
2018-11-10T16:32:44.923Z,17.67
2018-11-10T16:35:12.348Z,17.43
2018-11-10T16:37:40.178Z,16.77
2018-11-10T16:40:11.577Z,17.67
2018-11-10T16:42:39.472Z,17.40
2018-11-10T16:45:08.021Z,17.37
2018-11-10T16:47:35.668Z,17.40
2018-11-10T16:50:03.269Z,17.47
2018-11-10T16:52:31.014Z,16.40
2018-11-10T16:54:58.605Z,17.17
2018-11-10T16:57:26.161Z,17.07
2018-11-10T16:59:53.794Z,15.97
2018-11-10T17:02:21.482Z,16.53
2018-11-10T17:04:48.957Z,15.77
2018-11-10T17:07:16.567Z,15.43
2018-11-10T17:09:44.604Z,16.17
2018-11-10T17:12:12.236Z,15.53
2018-11-10T17:14:39.834Z,15.43
2018-11-10T17:17:07.460Z,15.03
2018-11-10T17:19:34.911Z,14.43
2018-11-10T17:22:02.660Z,15.57
2018-11-10T17:24:30.089Z,15.13
2018-11-10T17:26:57.675Z,15.43
2018-11-10T17:29:25.311Z,14.77
2018-11-10T17:31:52.815Z,14.10
2018-11-10T17:34:20.392Z,12.87
2018-11-10T17:36:47.998Z,12.03
2018-11-10T17:39:15.875Z,13.00
2018-11-10T17:41:43.374Z,12.33
2018-11-10T17:44:10.910Z,12.30
2018-11-10T17:46:38.516Z,12.90
2018-11-10T17:49:06.193Z,12.00
2018-11-10T17:51:33.766Z,11.83
2018-11-10T17:54:01.290Z,11.77
2018-11-10T17:56:28.967Z,11.63
2018-11-10T17:58:56.569Z,11.20
2018-11-10T18:01:24.120Z,11.80
2018-11-10T18:03:58.486Z,11.77
2018-11-10T18:06:26.088Z,11.73
2018-11-10T18:08:53.668Z,11.73
2018-11-10T18:11:21.273Z,11.30
2018-11-10T18:13:48.973Z,11.17
2018-11-10T18:16:16.609Z,11.73
2018-11-10T18:18:44.195Z,17.97
2018-11-10T18:21:11.767Z,13.77
2018-11-10T18:23:39.230Z,13.03
2018-11-10T18:26:06.725Z,13.37
2018-11-10T18:28:34.229Z,12.47
2018-11-10T18:31:01.723Z,12.33
2018-11-10T18:33:29.355Z,12.70
2018-11-10T18:35:57.156Z,12.80
2018-11-10T18:38:24.708Z,12.10
2018-11-10T18:40:52.434Z,11.87
2018-11-10T18:43:19.932Z,11.63
2018-11-10T18:45:47.745Z,12.03
2018-11-10T18:48:16.327Z,11.43
2018-11-10T18:50:43.876Z,11.27
2018-11-10T18:53:11.487Z,11.40
2018-11-10T18:55:39.128Z,11.97
2018-11-10T18:58:06.702Z,11.10
2018-11-10T19:00:34.305Z,11.60
2018-11-10T19:03:01.938Z,11.80
2018-11-10T19:05:29.449Z,12.13
2018-11-10T19:07:57.073Z,11.07
2018-11-10T19:10:24.625Z,12.00
2018-11-10T19:12:52.176Z,11.67
2018-11-10T19:15:23.103Z,10.67
2018-11-10T19:17:50.817Z,12.27
2018-11-10T19:20:18.716Z,11.23
2018-11-10T19:22:46.408Z,11.80
2018-11-10T19:25:14.309Z,12.20
2018-11-10T19:27:41.840Z,11.53
2018-11-10T19:30:12.705Z,12.13
2018-11-10T19:32:40.269Z,11.63
2018-11-10T19:35:07.809Z,13.40
2018-11-10T19:37:35.368Z,12.97
2018-11-10T19:40:03.322Z,12.60
2018-11-10T19:42:30.845Z,12.37
2018-11-10T19:44:58.560Z,13.57
2018-11-10T19:47:26.086Z,12.70
2018-11-10T19:49:53.796Z,13.47
2018-11-10T19:52:21.478Z,12.37
2018-11-10T19:54:49.101Z,12.57
2018-11-10T19:57:17.355Z,12.27
2018-11-10T19:59:45.057Z,12.43
2018-11-10T20:02:12.589Z,12.20
2018-11-10T20:04:40.558Z,12.33
2018-11-10T20:07:08.398Z,11.70
2018-11-10T20:09:35.981Z,12.67
2018-11-10T20:12:03.570Z,13.10
2018-11-10T20:14:31.184Z,12.57
2018-11-10T20:16:58.955Z,12.47
2018-11-10T20:19:26.700Z,13.20
2018-11-10T20:21:54.535Z,12.33
2018-11-10T20:24:22.495Z,12.87
2018-11-10T20:26:50.054Z,13.53
2018-11-10T20:29:17.789Z,14.30
2018-11-10T20:31:45.290Z,13.60
2018-11-10T20:34:13.129Z,13.83
2018-11-10T20:36:41.302Z,12.77
2018-11-10T20:39:09.976Z,13.33
2018-11-10T20:41:37.988Z,13.27
2018-11-10T20:44:05.796Z,13.13
2018-11-10T20:46:33.525Z,13.67
2018-11-10T20:49:01.275Z,13.13
2018-11-10T20:51:29.072Z,13.17
2018-11-10T20:53:57.106Z,13.50
2018-11-10T20:56:24.990Z,13.93
2018-11-10T20:58:52.606Z,13.27
2018-11-10T21:01:20.473Z,14.77
2018-11-10T21:03:49.101Z,12.73
2018-11-10T21:06:17.476Z,12.03
2018-11-10T21:08:45.245Z,13.60
2018-11-10T21:11:12.832Z,14.90
2018-11-10T21:13:40.390Z,13.50
2018-11-10T21:16:08.314Z,14.40
2018-11-10T21:18:35.996Z,14.50
2018-11-10T21:21:03.711Z,11.87
2018-11-10T21:23:31.308Z,13.17
2018-11-10T21:25:58.934Z,12.30
2018-11-10T21:28:26.678Z,12.63
2018-11-10T21:30:54.320Z,12.83
2018-11-10T21:33:22.121Z,11.83
2018-11-10T21:35:49.668Z,11.13
2018-11-10T21:38:17.280Z,10.93
2018-11-10T21:40:44.846Z,10.07
2018-11-10T21:43:12.329Z,10.37
2018-11-10T21:45:40.162Z,10.87
2018-11-10T21:48:07.822Z,10.87
2018-11-10T21:50:35.377Z,10.40
2018-11-10T21:53:03.125Z,10.03
2018-11-10T21:55:30.783Z,10.37
2018-11-10T21:57:58.511Z,10.73
2018-11-10T22:00:26.131Z,9.83
2018-11-10T22:02:53.712Z,9.87
2018-11-10T22:05:21.680Z,10.33
2018-11-10T22:07:49.334Z,9.63
2018-11-10T22:10:17.796Z,9.23
2018-11-10T22:12:45.520Z,9.33
2018-11-10T22:15:21.590Z,9.10
2018-11-10T22:17:49.916Z,9.97
2018-11-10T22:20:20.201Z,9.97
2018-11-10T22:22:47.851Z,9.10
2018-11-10T22:25:15.884Z,9.17
2018-11-10T22:27:44.887Z,10.43
2018-11-10T22:30:14.785Z,9.03
2018-11-10T22:32:43.059Z,8.60
2018-11-10T22:35:10.783Z,10.43
2018-11-10T22:37:38.639Z,9.87
2018-11-10T22:40:09.578Z,9.87
2018-11-10T22:42:38.035Z,8.83
2018-11-10T22:45:07.108Z,10.30
2018-11-10T22:47:34.840Z,9.37
2018-11-10T22:50:02.428Z,11.20
2018-11-10T22:52:29.997Z,10.23
2018-11-10T22:54:57.995Z,10.30
2018-11-10T22:57:25.855Z,10.00
2018-11-10T22:59:53.610Z,9.67
2018-11-10T23:02:21.940Z,9.67
2018-11-10T23:04:49.586Z,9.57
2018-11-10T23:07:17.442Z,10.07
2018-11-10T23:09:45.084Z,9.83
2018-11-10T23:12:12.758Z,9.40
2018-11-10T23:14:40.654Z,9.90
2018-11-10T23:17:08.289Z,9.33
2018-11-10T23:19:35.943Z,9.57
2018-11-10T23:22:03.632Z,8.93
2018-11-10T23:24:31.148Z,9.20
2018-11-10T23:26:58.853Z,8.80
2018-11-10T23:29:26.484Z,8.80
2018-11-10T23:31:54.120Z,8.63
2018-11-10T23:34:21.791Z,8.57
2018-11-10T23:36:49.556Z,8.47
2018-11-10T23:39:17.192Z,8.30
2018-11-10T23:41:44.852Z,8.30
2018-11-10T23:44:12.558Z,8.60
2018-11-10T23:46:40.348Z,8.60
2018-11-10T23:49:09.430Z,8.10
2018-11-10T23:51:37.053Z,8.67
2018-11-10T23:54:05.092Z,8.73
2018-11-10T23:56:32.728Z,8.83
2018-11-10T23:59:00.340Z,9.10
